createdAt,value
2022-10-18T03:01:13.636Z,9.30
2022-10-18T03:03:42.037Z,9.20
2022-10-18T03:06:10.427Z,8.97
2022-10-18T03:08:39.221Z,11.30
2022-10-18T03:11:07.971Z,10.23
2022-10-18T03:13:36.520Z,9.33
2022-10-18T03:16:05.289Z,9.93
2022-10-18T03:18:35.104Z,10.20
2022-10-18T03:21:06.660Z,10.40
2022-10-18T03:23:35.665Z,10.30
2022-10-18T03:26:04.465Z,9.47
2022-10-18T03:28:32.794Z,9.20
2022-10-18T03:31:03.007Z,9.30
2022-10-18T03:33:31.880Z,10.50
2022-10-18T03:36:01.747Z,10.17
2022-10-18T03:38:30.077Z,9.37
2022-10-18T03:40:58.520Z,11.93
2022-10-18T03:43:27.017Z,13.73
2022-10-18T03:45:55.384Z,14.60
2022-10-18T03:48:23.743Z,15.67
2022-10-18T03:50:52.088Z,16.33
2022-10-18T03:53:21.852Z,13.63
2022-10-18T03:55:52.787Z,8.87
2022-10-18T03:58:21.543Z,7.20
2022-10-18T04:00:51.958Z,6.40
2022-10-18T04:03:21.941Z,5.70
2022-10-18T04:05:51.499Z,6.10
2022-10-18T04:08:21.760Z,5.73
2022-10-18T04:10:50.279Z,5.07
2022-10-18T04:13:18.612Z,5.60
2022-10-18T04:15:47.052Z,4.40
2022-10-18T04:18:15.418Z,5.23
2022-10-18T04:20:43.729Z,3.80
2022-10-18T04:23:12.095Z,4.70
2022-10-18T04:25:44.756Z,4.30
2022-10-18T04:28:19.954Z,4.67
2022-10-18T04:30:52.166Z,5.57
2022-10-18T04:33:20.575Z,4.00
2022-10-18T04:35:49.050Z,4.60
2022-10-18T04:38:17.370Z,4.27
2022-10-18T04:40:45.935Z,4.30
2022-10-18T04:43:14.272Z,4.20
2022-10-18T04:45:46.468Z,4.57
2022-10-18T04:48:15.678Z,4.40
2022-10-18T04:50:44.060Z,3.40
2022-10-18T04:53:15.891Z,3.40
2022-10-18T04:55:46.315Z,3.60
2022-10-18T04:58:14.739Z,4.10
2022-10-18T05:00:44.682Z,4.43
2022-10-18T05:03:14.766Z,4.33
2022-10-18T05:06:02.965Z,3.93
2022-10-18T05:08:32.899Z,3.93
2022-10-18T05:11:02.037Z,3.53
2022-10-18T05:13:31.189Z,3.63
2022-10-18T05:16:00.951Z,4.27
2022-10-18T05:18:29.581Z,3.47
2022-10-18T05:20:58.340Z,4.27
2022-10-18T05:23:26.977Z,3.27
2022-10-18T05:25:55.686Z,3.93
2022-10-18T05:28:41.185Z,3.30
2022-10-18T05:31:12.714Z,4.50
2022-10-18T05:33:41.285Z,4.20
2022-10-18T05:36:10.407Z,5.17
2022-10-18T05:38:42.277Z,4.10
2022-10-18T05:41:11.328Z,4.10
2022-10-18T05:43:40.496Z,3.80
2022-10-18T05:46:14.999Z,3.97
2022-10-18T05:48:44.585Z,3.40
2022-10-18T05:51:13.248Z,3.30
2022-10-18T05:53:41.662Z,3.50
2022-10-18T05:56:12.001Z,3.97
2022-10-18T05:58:41.094Z,4.20
2022-10-18T06:01:11.810Z,4.27
2022-10-18T06:03:40.140Z,4.40
2022-10-18T06:06:11.973Z,5.27
2022-10-18T06:08:41.948Z,4.20
2022-10-18T06:11:12.517Z,4.33
2022-10-18T06:13:45.201Z,5.23
2022-10-18T06:16:17.712Z,4.60
2022-10-18T06:18:49.714Z,5.20
2022-10-18T06:21:19.000Z,4.50
2022-10-18T06:23:50.203Z,4.87
2022-10-18T06:26:18.968Z,4.57
2022-10-18T06:28:47.464Z,5.03
2022-10-18T06:31:17.513Z,5.30
2022-10-18T06:33:46.704Z,4.50
2022-10-18T06:36:18.120Z,4.83
2022-10-18T06:38:46.757Z,5.30
2022-10-18T06:41:15.551Z,5.57
2022-10-18T06:43:44.652Z,6.37
2022-10-18T06:46:13.047Z,5.10
2022-10-18T06:48:42.787Z,4.37
2022-10-18T06:51:12.902Z,6.37
2022-10-18T06:53:44.548Z,5.97
2022-10-18T06:56:21.806Z,4.80
2022-10-18T06:58:50.198Z,4.83
2022-10-18T07:01:19.690Z,5.10
2022-10-18T07:03:53.198Z,5.00
2022-10-18T07:06:22.538Z,5.70
2022-10-18T07:08:52.815Z,6.07
2022-10-18T07:11:25.153Z,5.83
2022-10-18T07:13:55.151Z,5.77
2022-10-18T07:16:23.644Z,5.90
2022-10-18T07:18:53.717Z,5.63
2022-10-18T07:21:25.907Z,4.80
2022-10-18T07:23:55.029Z,6.23
2022-10-18T07:26:27.199Z,5.10
2022-10-18T07:28:59.127Z,5.70
2022-10-18T07:31:28.144Z,6.40
2022-10-18T07:33:58.290Z,5.50
2022-10-18T07:36:27.394Z,6.70
2022-10-18T07:38:56.002Z,6.17
2022-10-18T07:41:24.633Z,5.43
2022-10-18T07:43:54.362Z,7.07
2022-10-18T07:46:23.651Z,6.37
2022-10-18T07:48:52.940Z,6.07
2022-10-18T07:51:22.845Z,5.37
2022-10-18T07:53:51.145Z,5.47
2022-10-18T07:56:22.179Z,6.20
2022-10-18T07:58:52.833Z,6.87
2022-10-18T08:01:22.967Z,8.20
2022-10-18T08:03:53.171Z,7.47
2022-10-18T08:06:23.877Z,7.10
2022-10-18T08:08:52.270Z,6.60
2022-10-18T08:11:23.957Z,7.30
2022-10-18T08:13:53.401Z,7.47
2022-10-18T08:16:24.401Z,6.53
2022-10-18T08:18:53.149Z,8.87
2022-10-18T08:21:23.123Z,7.20
2022-10-18T08:23:51.614Z,7.30
2022-10-18T08:26:22.570Z,6.67
2022-10-18T08:29:10.215Z,6.80
2022-10-18T08:31:39.972Z,6.77
2022-10-18T08:34:08.485Z,7.83
2022-10-18T08:36:39.077Z,7.57
2022-10-18T08:39:07.470Z,8.10
2022-10-18T08:42:07.099Z,7.50
2022-10-18T08:44:43.605Z,7.80
2022-10-18T08:47:16.632Z,7.40
2022-10-18T08:49:48.158Z,7.00
2022-10-18T08:52:33.678Z,6.73
2022-10-18T08:55:05.241Z,5.97
2022-10-18T08:57:34.409Z,6.77
2022-10-18T09:00:04.301Z,7.20
2022-10-18T09:02:45.286Z,6.77
2022-10-18T09:05:24.514Z,7.80
2022-10-18T09:08:22.881Z,8.23
2022-10-18T09:11:06.157Z,8.77
2022-10-18T09:14:13.970Z,6.50
2022-10-18T09:16:51.714Z,6.87
2022-10-18T09:19:40.216Z,6.90
2022-10-18T09:22:15.564Z,6.50
2022-10-18T09:24:51.421Z,5.33
2022-10-18T09:27:22.089Z,5.57
2022-10-18T09:30:05.176Z,6.13
2022-10-18T09:32:46.967Z,6.00
2022-10-18T09:35:21.145Z,5.73
2022-10-18T09:37:50.379Z,5.20
2022-10-18T09:40:24.699Z,5.90
2022-10-18T09:43:00.456Z,4.53
2022-10-18T09:45:32.498Z,3.40
2022-10-18T09:48:12.449Z,4.10
2022-10-18T09:50:45.811Z,4.80
2022-10-18T09:53:20.408Z,5.10
2022-10-18T09:56:01.681Z,4.70
2022-10-18T09:58:42.715Z,4.90
2022-10-18T10:01:14.500Z,4.80
2022-10-18T10:03:44.027Z,4.77
2022-10-18T10:06:26.507Z,5.30
2022-10-18T10:09:07.017Z,3.80
2022-10-18T10:11:40.318Z,2.90
2022-10-18T10:16:53.614Z,3.10
2022-10-18T10:19:29.057Z,4.50
2022-10-18T10:22:09.942Z,4.27
2022-10-18T10:24:49.474Z,5.00
2022-10-18T10:27:34.487Z,4.00
2022-10-18T10:30:07.330Z,3.40
2022-10-18T10:32:48.236Z,3.27
2022-10-18T10:35:49.045Z,3.83
2022-10-18T10:38:26.217Z,5.57
2022-10-18T10:40:55.496Z,3.43
2022-10-18T10:43:43.029Z,2.53
2022-10-18T10:46:14.338Z,3.07
2022-10-18T10:48:49.660Z,2.40
2022-10-18T10:51:30.435Z,2.80
2022-10-18T10:54:08.420Z,2.10
2022-10-18T10:56:39.128Z,2.40
2022-10-18T10:59:17.328Z,2.30
2022-10-18T11:01:47.850Z,2.33
2022-10-18T11:04:29.062Z,1.90
2022-10-18T11:07:24.579Z,2.10
2022-10-18T11:10:02.781Z,1.60
2022-10-18T11:12:35.699Z,1.53
2022-10-18T11:15:21.099Z,2.30
2022-10-18T11:18:04.171Z,1.53
2022-10-18T11:20:38.532Z,2.27
2022-10-18T11:23:09.741Z,1.83
2022-10-18T11:26:04.794Z,2.53
2022-10-18T11:28:48.842Z,2.03
2022-10-18T11:31:25.486Z,1.53
2022-10-18T11:34:14.509Z,1.63
2022-10-18T11:36:57.813Z,1.70
2022-10-18T11:39:51.034Z,1.70
2022-10-18T11:42:30.612Z,1.17
2022-10-18T11:45:12.628Z,1.97
2022-10-18T11:47:53.680Z,2.03
2022-10-18T11:50:32.184Z,2.30
2022-10-18T11:53:12.863Z,2.27
2022-10-18T11:55:58.282Z,2.33
2022-10-18T11:58:51.656Z,2.17
